createdAt,value
2022-08-11T00:01:06.724Z,16.10
2022-08-11T00:03:43.762Z,16.00
2022-08-11T00:06:14.326Z,15.90
2022-08-11T00:08:43.812Z,15.80
2022-08-11T00:11:12.747Z,15.60
2022-08-11T00:13:45.820Z,15.50
2022-08-11T00:16:22.435Z,15.50
2022-08-11T00:18:51.437Z,15.60
2022-08-11T00:21:20.817Z,15.40
2022-08-11T00:24:08.672Z,15.30
2022-08-11T00:26:36.914Z,15.20
2022-08-11T00:29:11.177Z,15.10
2022-08-11T00:31:38.664Z,14.90
2022-08-11T00:34:11.226Z,14.90
2022-08-11T00:36:51.074Z,14.70
2022-08-11T00:39:21.284Z,14.60
2022-08-11T00:42:04.040Z,14.40
2022-08-11T00:45:07.070Z,14.40
2022-08-11T00:47:36.616Z,14.30
2022-08-11T00:50:03.474Z,14.30
2022-08-11T00:52:51.246Z,14.20
2022-08-11T00:55:47.264Z,14.20
2022-08-11T00:58:50.899Z,14.10
2022-08-11T01:01:18.027Z,13.90
2022-08-11T01:04:14.513Z,13.90
2022-08-11T01:06:50.522Z,13.90
2022-08-11T01:09:42.120Z,13.80
2022-08-11T01:12:36.371Z,13.80
2022-08-11T01:15:31.268Z,13.70
2022-08-11T01:18:45.543Z,13.70
2022-08-11T01:21:31.175Z,13.60
2022-08-11T01:24:20.077Z,13.60
2022-08-11T01:27:19.241Z,13.60
2022-08-11T01:30:24.469Z,13.60
2022-08-11T01:33:03.359Z,13.60
2022-08-11T01:36:04.413Z,13.60
2022-08-11T01:39:04.667Z,13.50
2022-08-11T01:42:34.470Z,13.50
2022-08-11T01:45:16.253Z,13.50
2022-08-11T01:48:16.313Z,13.40
2022-08-11T01:50:43.030Z,13.50
2022-08-11T01:53:43.630Z,13.50
2022-08-11T01:56:34.706Z,13.50
2022-08-11T01:59:23.379Z,13.50
2022-08-11T02:01:59.089Z,13.50
2022-08-11T02:04:47.077Z,13.50
2022-08-11T02:07:22.126Z,13.40
2022-08-11T02:10:39.346Z,13.40
2022-08-11T02:13:30.290Z,13.30
2022-08-11T02:16:19.374Z,13.40
2022-08-11T02:19:14.336Z,13.30
2022-08-11T02:22:21.630Z,13.30
2022-08-11T02:24:57.899Z,13.40
2022-08-11T02:27:34.662Z,13.40
2022-08-11T02:30:11.350Z,13.30
2022-08-11T02:33:14.429Z,13.30
2022-08-11T02:36:01.528Z,13.20
2022-08-11T02:38:55.401Z,13.20
2022-08-11T02:41:44.387Z,13.10
2022-08-11T02:44:29.449Z,13.10
2022-08-11T02:47:09.357Z,13.00
2022-08-11T02:50:02.540Z,12.90
2022-08-11T02:52:59.960Z,12.80
2022-08-11T02:55:57.576Z,12.80
2022-08-11T02:58:35.491Z,12.70
2022-08-11T03:01:19.137Z,12.70
2022-08-11T03:04:05.509Z,12.70
2022-08-11T03:06:52.995Z,12.60
2022-08-11T03:10:10.003Z,12.50
2022-08-11T03:13:09.118Z,12.50
2022-08-11T03:16:16.434Z,12.50
2022-08-11T03:19:11.602Z,12.40
2022-08-11T03:22:01.636Z,12.30
2022-08-11T03:24:52.481Z,12.20
2022-08-11T03:28:03.445Z,12.20
2022-08-11T03:30:52.889Z,12.20
2022-08-11T03:33:52.629Z,12.10
2022-08-11T03:36:25.385Z,12.10
2022-08-11T03:39:24.444Z,12.00
2022-08-11T03:42:07.593Z,12.00
2022-08-11T03:45:01.841Z,11.90
2022-08-11T03:47:52.617Z,11.90
2022-08-11T03:50:56.216Z,11.90
2022-08-11T03:53:45.406Z,11.90
2022-08-11T03:56:21.362Z,11.90
2022-08-11T03:59:25.803Z,11.90
2022-08-11T04:02:20.262Z,11.80
2022-08-11T04:05:23.117Z,11.80
2022-08-11T04:08:16.475Z,11.80
2022-08-11T04:11:17.470Z,11.80
2022-08-11T04:14:52.280Z,11.80
2022-08-11T04:17:22.757Z,11.70
2022-08-11T04:20:02.115Z,11.80
2022-08-11T04:22:40.889Z,11.70
2022-08-11T04:25:29.289Z,11.80
2022-08-11T04:28:29.180Z,11.80
2022-08-11T04:31:10.851Z,11.70
2022-08-11T04:33:56.592Z,11.70
2022-08-11T04:37:02.339Z,11.70
2022-08-11T04:39:34.897Z,11.70
2022-08-11T04:43:06.092Z,11.80
2022-08-11T04:46:01.629Z,11.70
2022-08-11T04:49:06.040Z,11.80
2022-08-11T04:52:40.195Z,11.80
2022-08-11T04:56:05.589Z,11.80
2022-08-11T04:59:09.321Z,11.90
2022-08-11T05:01:41.852Z,11.90
2022-08-11T05:05:02.153Z,11.90
2022-08-11T05:07:49.356Z,12.00
2022-08-11T05:10:54.096Z,12.20
2022-08-11T05:13:51.842Z,12.40
2022-08-11T05:16:51.495Z,12.50
2022-08-11T05:19:39.802Z,12.60
2022-08-11T05:22:30.178Z,12.80
2022-08-11T05:26:42.857Z,13.00
2022-08-11T05:28:36.587Z,13.10
2022-08-11T05:31:35.198Z,13.40
2022-08-11T05:34:36.803Z,13.50
2022-08-11T05:37:25.085Z,13.90
2022-08-11T05:40:26.685Z,14.30
2022-08-11T05:43:32.548Z,14.50
2022-08-11T05:46:23.830Z,14.60
2022-08-11T05:49:10.760Z,14.70
2022-08-11T05:52:05.561Z,14.90
2022-08-11T05:54:59.852Z,15.00
2022-08-11T05:57:50.647Z,15.00
2022-08-11T06:00:19.864Z,15.20
2022-08-11T06:02:56.504Z,15.40
2022-08-11T06:05:37.327Z,15.40
2022-08-11T06:08:12.404Z,15.60
2022-08-11T06:10:49.984Z,15.80
2022-08-11T06:13:26.270Z,15.90
2022-08-11T06:16:07.320Z,16.00
2022-08-11T06:18:56.031Z,16.10
2022-08-11T06:21:23.288Z,16.20
2022-08-11T06:23:50.504Z,16.30
2022-08-11T06:26:17.862Z,16.30
2022-08-11T06:28:46.261Z,16.40
2022-08-11T06:31:16.755Z,16.50
2022-08-11T06:34:11.175Z,16.50
2022-08-11T06:36:56.525Z,16.70
2022-08-11T06:39:37.797Z,16.70
2022-08-11T06:42:09.550Z,16.90
2022-08-11T06:45:08.346Z,17.10
2022-08-11T06:47:35.871Z,17.10
2022-08-11T06:50:53.971Z,17.40
2022-08-11T06:53:26.389Z,17.40
2022-08-11T06:56:26.246Z,17.70
2022-08-11T06:59:18.454Z,17.70
2022-08-11T07:02:04.969Z,18.00
2022-08-11T07:04:43.960Z,18.40
2022-08-11T07:07:44.468Z,18.60
2022-08-11T07:11:09.623Z,20.80
2022-08-11T07:13:58.010Z,25.80
2022-08-11T07:16:48.253Z,26.50
2022-08-11T07:19:39.105Z,27.70
2022-08-11T07:22:30.511Z,27.70
2022-08-11T07:25:33.596Z,28.40
2022-08-11T07:28:25.739Z,26.80
2022-08-11T07:31:00.859Z,27.80
2022-08-11T07:34:07.401Z,28.50
2022-08-11T07:36:31.273Z,29.20
2022-08-11T07:39:00.252Z,28.20
2022-08-11T07:41:31.140Z,30.00
2022-08-11T07:44:09.233Z,31.70
2022-08-11T07:47:02.252Z,28.80
2022-08-11T07:49:54.109Z,29.20
2022-08-11T07:52:30.925Z,30.10
2022-08-11T07:55:06.767Z,30.00
2022-08-11T07:58:15.152Z,28.20
2022-08-11T08:01:08.631Z,29.90
2022-08-11T08:03:57.864Z,30.60
2022-08-11T08:06:44.727Z,31.00
2022-08-11T08:09:31.233Z,32.40
2022-08-11T08:12:20.626Z,30.70
2022-08-11T08:15:06.390Z,29.90
2022-08-11T08:18:10.070Z,31.70
2022-08-11T08:20:40.171Z,31.80
2022-08-11T08:23:07.648Z,33.40
2022-08-11T08:25:39.311Z,31.40
2022-08-11T08:28:10.830Z,28.20
2022-08-11T08:30:47.534Z,26.50
2022-08-11T08:33:19.653Z,25.50
2022-08-11T08:35:54.344Z,24.90
2022-08-11T08:38:23.259Z,24.80
2022-08-11T08:40:55.960Z,24.10
2022-08-11T08:43:24.264Z,24.50
2022-08-11T08:45:55.665Z,24.50
2022-08-11T08:48:25.823Z,24.90
2022-08-11T08:51:21.845Z,24.70
2022-08-11T08:53:53.435Z,24.40
2022-08-11T08:56:28.293Z,23.80
2022-08-11T08:58:57.975Z,24.10
2022-08-11T09:01:27.132Z,23.90
2022-08-11T09:04:02.818Z,23.80
2022-08-11T09:06:32.976Z,24.30
2022-08-11T09:09:00.026Z,24.00
2022-08-11T09:11:45.590Z,24.70
2022-08-11T09:14:15.077Z,25.20
2022-08-11T09:16:43.782Z,24.70
2022-08-11T09:19:13.914Z,24.70
2022-08-11T09:22:17.322Z,24.90
2022-08-11T09:25:05.593Z,25.20
2022-08-11T09:27:50.508Z,24.20
2022-08-11T09:30:20.055Z,24.30
2022-08-11T09:32:47.652Z,23.90
2022-08-11T09:35:14.559Z,24.30
2022-08-11T09:38:00.790Z,24.10
2022-08-11T09:40:30.511Z,24.60
2022-08-11T09:43:24.549Z,25.30
2022-08-11T09:45:57.561Z,25.20
2022-08-11T09:48:26.050Z,25.20
2022-08-11T09:50:57.396Z,24.90
2022-08-11T09:53:37.187Z,25.50
2022-08-11T09:56:48.351Z,25.10
2022-08-11T09:59:17.990Z,25.40
2022-08-11T10:01:50.503Z,25.40
2022-08-11T10:04:34.951Z,25.60
2022-08-11T10:07:10.598Z,26.20
2022-08-11T10:10:05.671Z,25.60
2022-08-11T10:12:40.786Z,25.00
2022-08-11T10:15:34.890Z,25.10
2022-08-11T10:18:29.920Z,26.30
2022-08-11T10:21:07.118Z,26.60
2022-08-11T10:24:00.515Z,26.00
2022-08-11T10:26:52.344Z,26.70
2022-08-11T10:29:44.557Z,26.60
2022-08-11T10:32:49.442Z,26.80
2022-08-11T10:35:28.046Z,26.00
2022-08-11T10:38:07.251Z,26.00
2022-08-11T10:40:39.670Z,25.60
2022-08-11T10:43:13.201Z,25.70
2022-08-11T10:46:05.481Z,25.20
2022-08-11T10:48:38.155Z,25.20
2022-08-11T10:51:14.970Z,25.70
2022-08-11T10:54:05.564Z,25.60
2022-08-11T10:56:54.443Z,26.40
2022-08-11T10:59:23.279Z,24.70
2022-08-11T11:01:52.458Z,26.20
2022-08-11T11:04:24.923Z,25.50
2022-08-11T11:07:15.054Z,25.90
2022-08-11T11:09:47.528Z,26.60
2022-08-11T11:12:43.139Z,25.80
2022-08-11T11:15:47.419Z,26.10
2022-08-11T11:19:00.522Z,26.30
2022-08-11T11:21:49.834Z,26.10
2022-08-11T11:24:51.595Z,25.80
2022-08-11T11:27:28.948Z,25.80
2022-08-11T11:30:16.689Z,25.80
2022-08-11T11:33:22.702Z,26.10
2022-08-11T11:36:14.426Z,25.40
2022-08-11T11:38:42.536Z,25.50
2022-08-11T11:41:26.360Z,25.20
2022-08-11T11:44:01.387Z,25.90
2022-08-11T11:46:38.580Z,25.80
2022-08-11T11:52:33.604Z,26.20
2022-08-11T11:55:05.215Z,26.00
2022-08-11T12:01:07.309Z,26.00
2022-08-11T12:04:01.306Z,25.80
2022-08-11T12:07:17.232Z,25.80
2022-08-11T12:10:25.395Z,25.60
2022-08-11T12:25:43.109Z,26.50
2022-08-11T12:28:45.929Z,26.50
2022-08-11T12:31:13.456Z,26.20
2022-08-11T12:33:44.090Z,26.20
2022-08-11T12:36:16.161Z,26.20
2022-08-11T12:38:51.540Z,26.20
2022-08-11T12:41:53.422Z,26.40
2022-08-11T12:44:45.189Z,26.00
2022-08-11T12:47:19.599Z,26.30
2022-08-11T12:50:39.012Z,26.20
2022-08-11T12:53:10.537Z,25.90
2022-08-11T12:59:27.070Z,26.50
2022-08-11T13:02:16.948Z,26.30
2022-08-11T13:05:06.319Z,26.40
2022-08-11T13:11:21.413Z,26.20
2022-08-11T13:14:27.978Z,26.30
2022-08-11T13:20:25.585Z,26.20
2022-08-11T13:23:17.881Z,26.20
2022-08-11T13:26:24.863Z,25.90
2022-08-11T13:29:54.003Z,25.80
2022-08-11T13:32:28.600Z,25.50
2022-08-11T13:34:56.490Z,25.70
2022-08-11T13:38:18.532Z,26.00
2022-08-11T13:40:33.308Z,26.10
2022-08-11T13:43:06.278Z,26.10
2022-08-11T13:45:40.588Z,25.90
2022-08-11T13:48:28.526Z,25.70
2022-08-11T13:51:16.463Z,25.70
2022-08-11T13:53:43.839Z,25.80
2022-08-11T13:56:19.683Z,25.50
2022-08-11T13:58:56.892Z,25.60
2022-08-11T14:02:03.789Z,25.70
2022-08-11T14:05:00.719Z,25.90
2022-08-11T14:08:47.350Z,25.70
2022-08-11T14:16:26.067Z,25.30
2022-08-11T14:19:35.445Z,25.40
2022-08-11T14:22:08.667Z,25.50
2022-08-11T14:28:35.062Z,25.20
2022-08-11T14:31:14.508Z,25.30
2022-08-11T14:34:22.925Z,25.50
2022-08-11T14:37:23.030Z,25.40
2022-08-11T14:50:09.656Z,25.60
2022-08-11T14:51:55.900Z,25.60
2022-08-11T14:54:51.538Z,25.50
2022-08-11T15:02:00.185Z,25.60
2022-08-11T15:04:36.877Z,25.60
2022-08-11T15:07:17.498Z,25.80
2022-08-11T15:12:52.819Z,25.50
2022-08-11T15:15:44.036Z,25.60
2022-08-11T15:18:31.036Z,25.90
2022-08-11T15:21:30.082Z,25.40
2022-08-11T15:24:18.376Z,25.60
2022-08-11T15:27:11.383Z,25.50
2022-08-11T15:30:01.475Z,25.50
2022-08-11T15:32:52.456Z,25.50
2022-08-11T15:35:38.816Z,25.50
2022-08-11T15:38:28.226Z,25.60
2022-08-11T15:41:20.330Z,25.60
2022-08-11T15:44:19.322Z,25.40
2022-08-11T15:46:56.097Z,25.30
2022-08-11T15:52:19.270Z,25.10
2022-08-11T15:54:58.698Z,24.90
2022-08-11T15:57:45.654Z,24.90
2022-08-11T16:00:41.395Z,24.80
2022-08-11T16:04:05.686Z,24.80
2022-08-11T16:06:33.579Z,24.70
2022-08-11T16:09:18.080Z,24.90
2022-08-11T16:11:50.018Z,24.90
2022-08-11T16:14:37.664Z,24.90
2022-08-11T16:17:11.581Z,24.80
2022-08-11T16:20:10.079Z,24.80
2022-08-11T16:23:01.503Z,24.90
2022-08-11T16:27:02.911Z,24.70
2022-08-11T16:28:44.491Z,24.80
2022-08-11T16:31:15.935Z,24.80
2022-08-11T16:33:52.514Z,24.80
2022-08-11T16:36:44.478Z,25.00
2022-08-11T16:39:24.983Z,24.90
2022-08-11T16:43:05.214Z,24.80
2022-08-11T16:45:26.518Z,24.50
2022-08-11T16:48:35.060Z,24.30
2022-08-11T16:50:55.180Z,24.30
2022-08-11T16:53:22.938Z,24.20
2022-08-11T16:56:20.556Z,24.10
2022-08-11T16:59:18.321Z,24.10
2022-08-11T17:02:08.270Z,24.00
2022-08-11T17:05:04.828Z,23.90
2022-08-11T17:07:51.515Z,23.80
2022-08-11T17:10:57.801Z,23.80
2022-08-11T17:13:50.931Z,23.80
2022-08-11T17:16:23.972Z,23.70
2022-08-11T17:19:13.746Z,23.70
2022-08-11T17:22:10.819Z,23.70
2022-08-11T17:24:48.199Z,23.60
2022-08-11T17:27:25.481Z,23.50
2022-08-11T17:30:09.156Z,23.50
2022-08-11T17:33:05.679Z,23.40
2022-08-11T17:35:55.122Z,23.30
2022-08-11T17:38:27.139Z,23.30
2022-08-11T17:41:23.743Z,23.30
2022-08-11T17:44:13.691Z,23.20
2022-08-11T17:47:08.012Z,23.20
2022-08-11T17:50:16.346Z,23.20
2022-08-11T17:57:36.423Z,23.00
2022-08-11T18:00:21.753Z,22.90
2022-08-11T18:03:17.623Z,22.70
2022-08-11T18:06:01.865Z,22.70
2022-08-11T18:12:20.468Z,22.60
2022-08-11T18:15:31.726Z,22.50
2022-08-11T18:18:21.588Z,22.50
2022-08-11T18:21:09.101Z,22.30
2022-08-11T18:23:54.712Z,22.30
2022-08-11T18:26:42.690Z,22.30
2022-08-11T18:29:31.330Z,22.20
2022-08-11T18:32:46.165Z,22.10
2022-08-11T18:35:36.660Z,21.90
2022-08-11T18:38:25.202Z,21.80
2022-08-11T18:41:11.551Z,21.70
2022-08-11T18:44:04.567Z,21.70
2022-08-11T18:46:57.110Z,21.60
2022-08-11T18:50:01.691Z,21.60
2022-08-11T18:52:54.112Z,21.50
2022-08-11T18:55:39.884Z,21.40
2022-08-11T18:58:30.360Z,21.40
2022-08-11T19:01:18.843Z,21.30
2022-08-11T19:04:11.289Z,21.20
2022-08-11T19:06:58.404Z,21.00
2022-08-11T19:09:47.195Z,21.00
2022-08-11T19:12:33.174Z,20.90
2022-08-11T19:15:21.025Z,20.80
2022-08-11T19:18:07.635Z,20.80
2022-08-11T19:20:55.040Z,20.80
2022-08-11T19:23:49.282Z,20.60
2022-08-11T19:26:35.744Z,20.50
2022-08-11T19:30:12.037Z,20.40
2022-08-11T19:32:32.709Z,20.30
2022-08-11T19:35:19.932Z,20.20
2022-08-11T19:38:06.394Z,20.10
2022-08-11T19:40:53.422Z,19.90
2022-08-11T19:43:39.562Z,19.90
2022-08-11T19:46:26.630Z,19.80
2022-08-11T19:49:14.299Z,19.70
2022-08-11T19:52:02.477Z,19.60
2022-08-11T19:54:51.794Z,19.50
2022-08-11T19:57:40.325Z,19.30
2022-08-11T20:00:34.707Z,19.20
2022-08-11T20:03:22.967Z,19.20
2022-08-11T20:06:09.346Z,19.10
2022-08-11T20:09:00.437Z,19.00
2022-08-11T20:11:50.395Z,19.00
2022-08-11T20:14:39.155Z,18.80
2022-08-11T20:17:29.658Z,18.70
2022-08-11T20:20:18.284Z,18.60
2022-08-11T20:23:06.953Z,18.50
2022-08-11T20:26:03.395Z,18.40
2022-08-11T20:28:55.559Z,18.30
2022-08-11T20:31:42.147Z,18.10
2022-08-11T20:34:29.983Z,18.00
2022-08-11T20:37:18.488Z,17.90
2022-08-11T20:40:05.434Z,17.80
2022-08-11T20:42:53.114Z,17.70
2022-08-11T20:45:55.167Z,17.70
2022-08-11T20:48:44.027Z,17.80
2022-08-11T20:51:33.894Z,17.80
2022-08-11T20:54:43.052Z,17.70
2022-08-11T20:57:58.980Z,17.70
2022-08-11T21:00:39.990Z,17.90
2022-08-11T21:03:35.478Z,18.10
2022-08-11T21:06:31.337Z,18.20
2022-08-11T21:09:21.065Z,18.20
2022-08-11T21:12:13.348Z,18.40
2022-08-11T21:14:59.828Z,18.20
2022-08-11T21:18:00.917Z,18.20
2022-08-11T21:20:57.849Z,18.20
2022-08-11T21:23:48.870Z,18.10
2022-08-11T21:26:37.049Z,18.10
2022-08-11T21:29:25.335Z,17.90
2022-08-11T21:32:12.570Z,17.70
2022-08-11T21:35:01.908Z,17.60
2022-08-11T21:37:50.288Z,17.50
2022-08-11T21:40:40.530Z,17.60
2022-08-11T21:43:27.173Z,17.70
2022-08-11T21:46:14.253Z,17.70
2022-08-11T21:48:59.849Z,17.40
2022-08-11T21:51:45.224Z,17.20
2022-08-11T21:54:31.881Z,17.10
2022-08-11T21:57:18.931Z,17.00
2022-08-11T22:00:09.321Z,16.90
2022-08-11T22:02:58.730Z,16.80
2022-08-11T22:05:48.310Z,16.60
2022-08-11T22:08:34.289Z,16.60
2022-08-11T22:11:32.297Z,16.40
2022-08-11T22:14:22.102Z,16.40
2022-08-11T22:17:07.855Z,16.40
2022-08-11T22:19:55.645Z,16.40
2022-08-11T22:22:51.855Z,16.60
2022-08-11T22:25:39.276Z,16.40
2022-08-11T22:28:39.163Z,16.30
2022-08-11T22:31:26.812Z,16.30
2022-08-11T22:34:12.417Z,16.20
2022-08-11T22:37:00.372Z,16.10
2022-08-11T22:40:02.060Z,16.10
2022-08-11T22:42:49.666Z,16.00
2022-08-11T22:45:35.274Z,15.80
2022-08-11T22:48:25.853Z,15.70
2022-08-11T22:51:15.960Z,15.60
2022-08-11T22:54:03.210Z,15.50
2022-08-11T22:56:50.342Z,15.40
2022-08-11T22:59:38.213Z,15.30
2022-08-11T23:02:25.514Z,15.20
2022-08-11T23:05:12.764Z,15.20
2022-08-11T23:07:58.989Z,15.10
2022-08-11T23:10:45.882Z,15.00
2022-08-11T23:13:31.808Z,14.90
2022-08-11T23:16:18.324Z,14.80
2022-08-11T23:19:04.828Z,14.80
2022-08-11T23:21:50.391Z,14.80
2022-08-11T23:24:36.383Z,14.70
2022-08-11T23:27:23.224Z,14.70
2022-08-11T23:30:11.399Z,14.60
2022-08-11T23:32:58.150Z,14.60
2022-08-11T23:35:53.716Z,14.50
2022-08-11T23:38:43.947Z,14.50
2022-08-11T23:41:33.225Z,14.40
2022-08-11T23:44:23.895Z,14.40
2022-08-11T23:47:14.578Z,14.30
2022-08-11T23:50:01.287Z,14.20
2022-08-11T23:52:47.674Z,14.20
2022-08-11T23:58:41.944Z,14.10
